sensor_id;sensor_type;location;lat;lon;timestamp;pressure;altitude;pressure_sealevel;temperature;humidity
59443;BME280;45247;47.466;19.004;2022-08-11T00:02:25;100371.00;;;19.88;79.12
59443;BME280;45247;47.466;19.004;2022-08-11T00:04:55;100370.00;;;19.80;79.66
59443;BME280;45247;47.466;19.004;2022-08-11T00:07:25;100363.22;;;19.75;79.71
59443;BME280;45247;47.466;19.004;2022-08-11T00:09:54;100360.66;;;19.74;79.72
59443;BME280;45247;47.466;19.004;2022-08-11T00:12:24;100360.97;;;19.71;79.88
59443;BME280;45247;47.466;19.004;2022-08-11T00:14:57;100353.19;;;19.68;79.52
59443;BME280;45247;47.466;19.004;2022-08-11T00:17:28;100353.91;;;19.70;79.40
59443;BME280;45247;47.466;19.004;2022-08-11T00:20:05;100350.69;;;19.76;78.97
59443;BME280;45247;47.466;19.004;2022-08-11T00:22:44;100349.94;;;19.74;79.01
59443;BME280;45247;47.466;19.004;2022-08-11T00:25:15;100351.25;;;19.70;79.72
59443;BME280;45247;47.466;19.004;2022-08-11T00:27:45;100343.34;;;19.68;79.48
59443;BME280;45247;47.466;19.004;2022-08-11T00:30:14;100350.66;;;19.66;79.69
59443;BME280;45247;47.466;19.004;2022-08-11T00:32:44;100346.16;;;19.67;79.70
59443;BME280;45247;47.466;19.004;2022-08-11T00:35:25;100350.94;;;19.63;80.42
59443;BME280;45247;47.466;19.004;2022-08-11T00:38:15;100349.81;;;19.66;80.46
59443;BME280;45247;47.466;19.004;2022-08-11T00:40:52;100346.44;;;19.64;80.70
59443;BME280;45247;47.466;19.004;2022-08-11T00:43:30;100343.28;;;19.59;81.29
59443;BME280;45247;47.466;19.004;2022-08-11T00:46:11;100349.09;;;19.64;81.16
59443;BME280;45247;47.466;19.004;2022-08-11T00:48:49;100344.97;;;19.60;81.86
59443;BME280;45247;47.466;19.004;2022-08-11T00:51:39;100345.25;;;19.57;82.33
59443;BME280;45247;47.466;19.004;2022-08-11T00:54:51;100343.00;;;19.52;83.04
59443;BME280;45247;47.466;19.004;2022-08-11T00:57:55;100336.78;;;19.51;83.47
59443;BME280;45247;47.466;19.004;2022-08-11T01:00:56;100348.75;;;19.47;84.33
59443;BME280;45247;47.466;19.004;2022-08-11T01:03:51;100339.31;;;19.43;84.65
59443;BME280;45247;47.466;19.004;2022-08-11T01:06:40;100350.84;;;19.44;85.18
59443;BME280;45247;47.466;19.004;2022-08-11T01:09:27;100346.91;;;19.38;85.66
59443;BME280;45247;47.466;19.004;2022-08-11T01:12:29;100343.53;;;19.36;85.84
59443;BME280;45247;47.466;19.004;2022-08-11T01:15:38;100338.19;;;19.36;86.08
59443;BME280;45247;47.466;19.004;2022-08-11T01:18:54;100341.28;;;19.41;85.87
59443;BME280;45247;47.466;19.004;2022-08-11T01:22:05;100327.75;;;19.33;86.84
59443;BME280;45247;47.466;19.004;2022-08-11T01:25:14;100337.03;;;19.29;87.19
59443;BME280;45247;47.466;19.004;2022-08-11T01:28:22;100342.78;;;19.24;88.18
59443;BME280;45247;47.466;19.004;2022-08-11T01:37:48;100336.97;;;19.10;90.22
59443;BME280;45247;47.466;19.004;2022-08-11T01:40:47;100328.94;;;19.10;90.49
59443;BME280;45247;47.466;19.004;2022-08-11T01:46:45;100329.63;;;19.02;91.29
59443;BME280;45247;47.466;19.004;2022-08-11T01:49:25;100331.47;;;19.01;91.46
59443;BME280;45247;47.466;19.004;2022-08-11T01:52:24;100334.97;;;19.02;91.79
59443;BME280;45247;47.466;19.004;2022-08-11T01:55:15;100329.06;;;18.98;91.84
59443;BME280;45247;47.466;19.004;2022-08-11T01:57:52;100328.22;;;18.98;92.26
59443;BME280;45247;47.466;19.004;2022-08-11T02:00:28;100324.00;;;19.05;92.02
59443;BME280;45247;47.466;19.004;2022-08-11T02:03:07;100331.56;;;19.00;92.24
59443;BME280;45247;47.466;19.004;2022-08-11T02:05:54;100325.78;;;18.95;92.90
59443;BME280;45247;47.466;19.004;2022-08-11T02:08:39;100322.56;;;19.01;92.42
59443;BME280;45247;47.466;19.004;2022-08-11T02:11:24;100318.38;;;19.08;91.93
59443;BME280;45247;47.466;19.004;2022-08-11T02:14:15;100313.28;;;19.05;92.21
59443;BME280;45247;47.466;19.004;2022-08-11T02:16:55;100314.69;;;18.99;92.81
59443;BME280;45247;47.466;19.004;2022-08-11T02:19:37;100317.22;;;19.01;93.15
59443;BME280;45247;47.466;19.004;2022-08-11T02:22:30;100321.72;;;19.00;93.21
59443;BME280;45247;47.466;19.004;2022-08-11T02:25:25;100314.44;;;19.02;93.43
59443;BME280;45247;47.466;19.004;2022-08-11T02:28:06;100316.78;;;18.96;93.93
59443;BME280;45247;47.466;19.004;2022-08-11T02:30:47;100310.44;;;18.97;94.62
59443;BME280;45247;47.466;19.004;2022-08-11T02:34:05;100319.34;;;18.97;94.14
59443;BME280;45247;47.466;19.004;2022-08-11T02:36:47;100316.38;;;19.00;94.24
59443;BME280;45247;47.466;19.004;2022-08-11T02:39:19;100317.91;;;18.93;94.80
59443;BME280;45247;47.466;19.004;2022-08-11T02:41:57;100315.75;;;18.87;95.85
59443;BME280;45247;47.466;19.004;2022-08-11T02:51:16;100311.47;;;18.75;97.33
59443;BME280;45247;47.466;19.004;2022-08-11T02:53:58;100313.47;;;18.73;97.58
59443;BME280;45247;47.466;19.004;2022-08-11T02:56:39;100308.97;;;18.73;97.98
59443;BME280;45247;47.466;19.004;2022-08-11T02:59:32;100302.41;;;18.66;98.64
59443;BME280;45247;47.466;19.004;2022-08-11T03:02:49;100309.84;;;18.63;99.32
59443;BME280;45247;47.466;19.004;2022-08-11T03:05:36;100310.97;;;18.60;99.90
59443;BME280;45247;47.466;19.004;2022-08-11T03:08:14;100308.31;;;18.60;100.00
59443;BME280;45247;47.466;19.004;2022-08-11T03:10:54;100302.38;;;18.57;100.00
59443;BME280;45247;47.466;19.004;2022-08-11T03:13:57;100311.13;;;18.59;100.00
59443;BME280;45247;47.466;19.004;2022-08-11T03:16:52;100320.09;;;18.58;100.00
59443;BME280;45247;47.466;19.004;2022-08-11T03:19:29;100315.03;;;18.55;100.00
59443;BME280;45247;47.466;19.004;2022-08-11T03:22:07;100307.13;;;18.53;100.00
59443;BME280;45247;47.466;19.004;2022-08-11T03:24:48;100318.66;;;18.53;100.00
59443;BME280;45247;47.466;19.004;2022-08-11T03:27:30;100316.72;;;18.56;100.00
59443;BME280;45247;47.466;19.004;2022-08-11T03:30:05;100315.28;;;18.51;100.00
59443;BME280;45247;47.466;19.004;2022-08-11T03:32:41;100317.41;;;18.58;100.00
59443;BME280;45247;47.466;19.004;2022-08-11T03:35:39;100318.16;;;18.60;100.00
59443;BME280;45247;47.466;19.004;2022-08-11T03:38:12;100315.03;;;18.55;100.00
59443;BME280;45247;47.466;19.004;2022-08-11T03:40:58;100321.22;;;18.55;100.00
59443;BME280;45247;47.466;19.004;2022-08-11T03:44:22;100319.25;;;18.57;100.00
59443;BME280;45247;47.466;19.004;2022-08-11T03:47:07;100312.06;;;18.58;100.00
59443;BME280;45247;47.466;19.004;2022-08-11T03:49:47;100314.22;;;18.64;100.00
59443;BME280;45247;47.466;19.004;2022-08-11T03:52:31;100322.69;;;18.69;100.00
59443;BME280;45247;47.466;19.004;2022-08-11T03:55:09;100327.81;;;18.72;99.41
59443;BME280;45247;47.466;19.004;2022-08-11T04:01:06;100313.91;;;18.78;98.54
59443;BME280;45247;47.466;19.004;2022-08-11T04:06:53;100317.31;;;19.30;93.56
59443;BME280;45247;47.466;19.004;2022-08-11T04:12:58;100316.88;;;21.08;77.35
59443;BME280;45247;47.466;19.004;2022-08-11T04:15:58;100316.53;;;21.20;76.69
59443;BME280;45247;47.466;19.004;2022-08-11T04:25:19;100314.25;;;24.67;56.07
59443;BME280;45247;47.466;19.004;2022-08-11T04:28:33;100308.88;;;25.77;51.28
59443;BME280;45247;47.466;19.004;2022-08-11T04:31:34;100304.44;;;27.19;46.79
59443;BME280;45247;47.466;19.004;2022-08-11T04:34:35;100308.66;;;28.01;44.05
59443;BME280;45247;47.466;19.004;2022-08-11T04:37:48;100324.81;;;28.09;42.90
59443;BME280;45247;47.466;19.004;2022-08-11T04:47:13;100313.75;;;28.94;40.50
59443;BME280;45247;47.466;19.004;2022-08-11T04:50:31;100312.84;;;30.83;38.05
59443;BME280;45247;47.466;19.004;2022-08-11T04:53:53;100316.75;;;31.58;35.41
59443;BME280;45247;47.466;19.004;2022-08-11T04:57:02;100307.09;;;31.56;35.48
59443;BME280;45247;47.466;19.004;2022-08-11T05:00:04;100309.81;;;32.69;34.04
59443;BME280;45247;47.466;19.004;2022-08-11T05:03:28;100303.59;;;32.80;33.04
59443;BME280;45247;47.466;19.004;2022-08-11T05:06:27;100305.94;;;31.38;35.26
59443;BME280;45247;47.466;19.004;2022-08-11T05:09:14;100313.38;;;31.63;34.71
59443;BME280;45247;47.466;19.004;2022-08-11T05:12:25;100317.53;;;33.15;32.94
59443;BME280;45247;47.466;19.004;2022-08-11T05:14:58;100318.00;;;33.43;32.08
59443;BME280;45247;47.466;19.004;2022-08-11T05:17:52;100316.13;;;32.70;32.94
59443;BME280;45247;47.466;19.004;2022-08-11T05:20:46;100316.16;;;34.27;31.59
59443;BME280;45247;47.466;19.004;2022-08-11T05:23:38;100323.47;;;31.94;33.57
59443;BME280;45247;47.466;19.004;2022-08-11T05:26:24;100320.91;;;32.24;33.64
59443;BME280;45247;47.466;19.004;2022-08-11T05:29:25;100329.72;;;32.76;32.59
59443;BME280;45247;47.466;19.004;2022-08-11T05:32:15;100335.13;;;32.39;32.96
59443;BME280;45247;47.466;19.004;2022-08-11T05:35:04;100325.09;;;31.70;33.66
59443;BME280;45247;47.466;19.004;2022-08-11T05:37:43;100328.38;;;30.62;34.70
59443;BME280;45247;47.466;19.004;2022-08-11T05:40:29;100331.34;;;31.26;34.22
59443;BME280;45247;47.466;19.004;2022-08-11T05:43:18;100333.25;;;32.58;33.00
59443;BME280;45247;47.466;19.004;2022-08-11T05:46:26;100350.25;;;29.13;37.18
59443;BME280;45247;47.466;19.004;2022-08-11T05:49:12;100342.00;;;27.73;40.28
59443;BME280;45247;47.466;19.004;2022-08-11T05:51:59;100339.44;;;29.33;37.65
59443;BME280;45247;47.466;19.004;2022-08-11T05:55:02;100345.50;;;28.94;38.58
59443;BME280;45247;47.466;19.004;2022-08-11T05:57:54;100343.59;;;29.23;38.67
59443;BME280;45247;47.466;19.004;2022-08-11T06:00:23;100347.63;;;30.87;35.69
59443;BME280;45247;47.466;19.004;2022-08-11T06:02:55;100343.91;;;30.75;35.69
59443;BME280;45247;47.466;19.004;2022-08-11T06:05:31;100339.09;;;29.02;37.65
59443;BME280;45247;47.466;19.004;2022-08-11T06:08:11;100340.66;;;29.65;37.43
59443;BME280;45247;47.466;19.004;2022-08-11T06:10:42;100344.44;;;28.60;38.62
59443;BME280;45247;47.466;19.004;2022-08-11T06:13:14;100349.16;;;27.81;40.67
59443;BME280;45247;47.466;19.004;2022-08-11T06:15:44;100345.41;;;27.45;41.17
59443;BME280;45247;47.466;19.004;2022-08-11T06:18:13;100350.56;;;28.97;39.41
59443;BME280;45247;47.466;19.004;2022-08-11T06:20:46;100336.91;;;28.90;38.32
59443;BME280;45247;47.466;19.004;2022-08-11T06:23:16;100332.53;;;26.88;42.24
59443;BME280;45247;47.466;19.004;2022-08-11T06:25:47;100347.69;;;27.63;41.47
59443;BME280;45247;47.466;19.004;2022-08-11T06:28:18;100333.88;;;27.58;41.54
59443;BME280;45247;47.466;19.004;2022-08-11T06:30:49;100342.34;;;27.70;41.28
59443;BME280;45247;47.466;19.004;2022-08-11T06:33:20;100335.72;;;28.15;40.81
59443;BME280;45247;47.466;19.004;2022-08-11T06:36:01;100332.94;;;27.87;40.54
59443;BME280;45247;47.466;19.004;2022-08-11T06:38:48;100340.00;;;27.45;41.81
59443;BME280;45247;47.466;19.004;2022-08-11T06:41:33;100340.28;;;27.72;41.51
59443;BME280;45247;47.466;19.004;2022-08-11T06:44:17;100342.78;;;28.59;39.62
59443;BME280;45247;47.466;19.004;2022-08-11T06:46:50;100334.38;;;29.17;38.58
59443;BME280;45247;47.466;19.004;2022-08-11T06:49:20;100339.16;;;28.80;39.47
59443;BME280;45247;47.466;19.004;2022-08-11T06:52:09;100334.81;;;28.08;40.56
59443;BME280;45247;47.466;19.004;2022-08-11T06:55:05;100335.09;;;28.63;40.06
59443;BME280;45247;47.466;19.004;2022-08-11T06:57:56;100335.47;;;28.94;38.36
59443;BME280;45247;47.466;19.004;2022-08-11T07:00:43;100344.66;;;28.93;37.37
59443;BME280;45247;47.466;19.004;2022-08-11T07:03:16;100340.59;;;28.76;37.07
59443;BME280;45247;47.466;19.004;2022-08-11T07:05:50;100332.84;;;28.73;38.26
59443;BME280;45247;47.466;19.004;2022-08-11T07:08:40;100328.66;;;27.57;40.04
59443;BME280;45247;47.466;19.004;2022-08-11T07:12:01;100324.06;;;27.57;40.59
59443;BME280;45247;47.466;19.004;2022-08-11T07:15:09;100328.19;;;28.11;39.78
59443;BME280;45247;47.466;19.004;2022-08-11T07:18:22;100330.25;;;27.87;38.88
59443;BME280;45247;47.466;19.004;2022-08-11T07:21:15;100331.34;;;27.57;39.20
59443;BME280;45247;47.466;19.004;2022-08-11T07:24:26;100326.91;;;27.70;38.87
59443;BME280;45247;47.466;19.004;2022-08-11T07:27:29;100331.91;;;27.67;38.99
59443;BME280;45247;47.466;19.004;2022-08-11T07:30:17;100325.97;;;28.00;39.58
59443;BME280;45247;47.466;19.004;2022-08-11T07:32:50;100330.66;;;27.84;39.59
59443;BME280;45247;47.466;19.004;2022-08-11T07:35:23;100328.94;;;27.83;39.26
59443;BME280;45247;47.466;19.004;2022-08-11T07:37:57;100329.34;;;28.23;38.27
59443;BME280;45247;47.466;19.004;2022-08-11T07:40:29;100340.00;;;28.03;38.84
59443;BME280;45247;47.466;19.004;2022-08-11T07:42:59;100333.03;;;27.73;39.61
59443;BME280;45247;47.466;19.004;2022-08-11T07:45:30;100333.38;;;27.18;40.60
59443;BME280;45247;47.466;19.004;2022-08-11T07:48:14;100334.38;;;27.32;40.69
59443;BME280;45247;47.466;19.004;2022-08-11T07:51:00;100323.88;;;27.59;39.89
59443;BME280;45247;47.466;19.004;2022-08-11T07:53:47;100316.38;;;27.61;39.39
59443;BME280;45247;47.466;19.004;2022-08-11T07:56:31;100326.56;;;27.37;39.17
59443;BME280;45247;47.466;19.004;2022-08-11T07:59:20;100320.97;;;27.60;39.86
59443;BME280;45247;47.466;19.004;2022-08-11T08:02:29;100312.94;;;27.67;38.76
59443;BME280;45247;47.466;19.004;2022-08-11T08:05:16;100327.78;;;27.05;37.53
59443;BME280;45247;47.466;19.004;2022-08-11T08:08:04;100322.13;;;26.85;38.58
59443;BME280;45247;47.466;19.004;2022-08-11T08:10:51;100319.00;;;27.03;40.09
59443;BME280;45247;47.466;19.004;2022-08-11T08:13:39;100309.59;;;27.14;39.90
59443;BME280;45247;47.466;19.004;2022-08-11T08:16:25;100316.56;;;27.08;40.61
59443;BME280;45247;47.466;19.004;2022-08-11T08:19:14;100315.38;;;27.11;39.96
59443;BME280;45247;47.466;19.004;2022-08-11T08:21:43;100317.41;;;27.38;40.24
59443;BME280;45247;47.466;19.004;2022-08-11T08:24:12;100317.72;;;27.14;39.89
59443;BME280;45247;47.466;19.004;2022-08-11T08:26:41;100312.94;;;26.86;41.21
59443;BME280;45247;47.466;19.004;2022-08-11T08:29:26;100316.69;;;26.85;40.26
59443;BME280;45247;47.466;19.004;2022-08-11T08:32:15;100311.34;;;26.92;41.31
59443;BME280;45247;47.466;19.004;2022-08-11T08:34:45;100297.44;;;26.80;40.63
59443;BME280;45247;47.466;19.004;2022-08-11T08:37:17;100305.47;;;26.88;40.58
59443;BME280;45247;47.466;19.004;2022-08-11T08:40:07;100303.69;;;26.95;40.02
59443;BME280;45247;47.466;19.004;2022-08-11T08:42:38;100301.09;;;26.87;40.36
59443;BME280;45247;47.466;19.004;2022-08-11T08:45:12;100305.00;;;26.85;40.42
59443;BME280;45247;47.466;19.004;2022-08-11T08:47:47;100295.22;;;26.99;41.18
59443;BME280;45247;47.466;19.004;2022-08-11T08:50:21;100307.88;;;26.54;41.08
59443;BME280;45247;47.466;19.004;2022-08-11T08:53:13;100298.13;;;26.30;41.40
59443;BME280;45247;47.466;19.004;2022-08-11T08:55:44;100297.00;;;26.24;41.22
59443;BME280;45247;47.466;19.004;2022-08-11T08:58:14;100302.41;;;26.47;42.53
59443;BME280;45247;47.466;19.004;2022-08-11T09:00:44;100302.41;;;26.24;42.16
59443;BME280;45247;47.466;19.004;2022-08-11T09:03:13;100296.13;;;26.09;42.30
59443;BME280;45247;47.466;19.004;2022-08-11T09:06:03;100288.03;;;26.09;42.66
59443;BME280;45247;47.466;19.004;2022-08-11T09:08:33;100283.59;;;25.93;42.49
59443;BME280;45247;47.466;19.004;2022-08-11T09:11:03;100289.56;;;26.26;43.16
59443;BME280;45247;47.466;19.004;2022-08-11T09:13:51;100291.56;;;26.24;42.05
59443;BME280;45247;47.466;19.004;2022-08-11T09:16:33;100272.94;;;26.29;41.88
59443;BME280;45247;47.466;19.004;2022-08-11T09:19:02;100265.22;;;26.41;40.59
59443;BME280;45247;47.466;19.004;2022-08-11T09:21:32;100264.06;;;26.73;40.04
59443;BME280;45247;47.466;19.004;2022-08-11T09:24:16;100267.19;;;27.21;39.49
59443;BME280;45247;47.466;19.004;2022-08-11T09:27:05;100266.16;;;27.07;37.59
59443;BME280;45247;47.466;19.004;2022-08-11T09:29:34;100269.34;;;26.96;36.86
59443;BME280;45247;47.466;19.004;2022-08-11T09:32:04;100270.47;;;26.72;36.63
59443;BME280;45247;47.466;19.004;2022-08-11T09:34:37;100264.22;;;26.57;36.71
59443;BME280;45247;47.466;19.004;2022-08-11T09:37:08;100258.81;;;26.57;35.52
59443;BME280;45247;47.466;19.004;2022-08-11T09:40:14;100252.25;;;26.81;34.03
59443;BME280;45247;47.466;19.004;2022-08-11T09:43:02;100244.00;;;27.55;34.04
59443;BME280;45247;47.466;19.004;2022-08-11T09:45:51;100241.94;;;27.78;32.51
59443;BME280;45247;47.466;19.004;2022-08-11T09:48:22;100244.75;;;27.70;33.19
59443;BME280;45247;47.466;19.004;2022-08-11T09:50:56;100233.28;;;27.46;33.15
59443;BME280;45247;47.466;19.004;2022-08-11T09:53:30;100229.06;;;27.44;33.40
59443;BME280;45247;47.466;19.004;2022-08-11T09:56:09;100230.22;;;26.99;33.66
59443;BME280;45247;47.466;19.004;2022-08-11T09:58:56;100248.28;;;26.77;35.52
59443;BME280;45247;47.466;19.004;2022-08-11T10:01:30;100241.63;;;26.79;35.57
59443;BME280;45247;47.466;19.004;2022-08-11T10:04:04;100241.56;;;26.73;35.65
59443;BME280;45247;47.466;19.004;2022-08-11T10:06:36;100237.72;;;26.67;36.88
59443;BME280;45247;47.466;19.004;2022-08-11T10:09:25;100244.53;;;26.78;36.10
59443;BME280;45247;47.466;19.004;2022-08-11T10:11:56;100240.22;;;26.83;36.76
59443;BME280;45247;47.466;19.004;2022-08-11T10:14:26;100238.44;;;26.90;36.15
59443;BME280;45247;47.466;19.004;2022-08-11T10:17:15;100225.09;;;26.89;36.68
59443;BME280;45247;47.466;19.004;2022-08-11T10:19:45;100229.31;;;26.62;37.23
59443;BME280;45247;47.466;19.004;2022-08-11T10:22:32;100229.13;;;26.78;37.26
59443;BME280;45247;47.466;19.004;2022-08-11T10:25:21;100227.56;;;27.05;37.14
59443;BME280;45247;47.466;19.004;2022-08-11T10:28:08;100217.41;;;27.43;36.73
59443;BME280;45247;47.466;19.004;2022-08-11T10:30:58;100213.06;;;27.28;36.18
59443;BME280;45247;47.466;19.004;2022-08-11T10:33:44;100210.09;;;27.65;35.99
59443;BME280;45247;47.466;19.004;2022-08-11T10:36:31;100209.72;;;27.68;35.29
59443;BME280;45247;47.466;19.004;2022-08-11T10:39:02;100206.78;;;27.70;33.98
59443;BME280;45247;47.466;19.004;2022-08-11T10:41:33;100211.25;;;27.99;34.83
59443;BME280;45247;47.466;19.004;2022-08-11T10:44:36;100203.84;;;28.14;33.36
59443;BME280;45247;47.466;19.004;2022-08-11T10:47:06;100204.56;;;28.58;33.83
59443;BME280;45247;47.466;19.004;2022-08-11T10:49:52;100196.25;;;28.66;33.37
59443;BME280;45247;47.466;19.004;2022-08-11T10:52:35;100207.81;;;28.47;33.06
59443;BME280;45247;47.466;19.004;2022-08-11T10:55:22;100205.84;;;28.68;31.18
59443;BME280;45247;47.466;19.004;2022-08-11T10:58:10;100187.59;;;28.49;31.65
59443;BME280;45247;47.466;19.004;2022-08-11T11:00:56;100195.84;;;28.76;31.21
59443;BME280;45247;47.466;19.004;2022-08-11T11:03:29;100190.97;;;28.58;31.22
59443;BME280;45247;47.466;19.004;2022-08-11T11:06:05;100179.25;;;28.99;31.84
59443;BME280;45247;47.466;19.004;2022-08-11T11:09:02;100173.56;;;28.87;31.49
59443;BME280;45247;47.466;19.004;2022-08-11T11:11:35;100172.75;;;28.52;32.24
59443;BME280;45247;47.466;19.004;2022-08-11T11:14:26;100182.25;;;28.34;33.35
59443;BME280;45247;47.466;19.004;2022-08-11T11:17:24;100177.59;;;28.21;32.99
59443;BME280;45247;47.466;19.004;2022-08-11T11:20:22;100168.44;;;28.29;30.63
59443;BME280;45247;47.466;19.004;2022-08-11T11:23:07;100164.91;;;28.63;30.54
59443;BME280;45247;47.466;19.004;2022-08-11T11:25:56;100163.25;;;29.30;28.70
59443;BME280;45247;47.466;19.004;2022-08-11T11:32:14;100141.50;;;29.17;29.94
59443;BME280;45247;47.466;19.004;2022-08-11T11:37:50;100143.53;;;29.02;29.78
59443;BME280;45247;47.466;19.004;2022-08-11T11:40:30;100128.44;;;28.92;28.99
59443;BME280;45247;47.466;19.004;2022-08-11T11:43:00;100134.59;;;29.34;29.75
59443;BME280;45247;47.466;19.004;2022-08-11T11:45:28;100143.38;;;29.16;28.42
59443;BME280;45247;47.466;19.004;2022-08-11T11:47:59;100138.56;;;28.64;28.06
59443;BME280;45247;47.466;19.004;2022-08-11T11:50:30;100132.91;;;28.17;29.68
59443;BME280;45247;47.466;19.004;2022-08-11T11:53:01;100125.53;;;28.05;30.08
59443;BME280;45247;47.466;19.004;2022-08-11T11:55:30;100127.75;;;28.29;30.07
59443;BME280;45247;47.466;19.004;2022-08-11T11:58:00;100122.28;;;28.57;30.55
59443;BME280;45247;47.466;19.004;2022-08-11T12:00:48;100117.34;;;28.81;30.75
59443;BME280;45247;47.466;19.004;2022-08-11T12:03:37;100117.56;;;28.31;31.08
59443;BME280;45247;47.466;19.004;2022-08-11T12:06:07;100126.50;;;27.90;31.88
59443;BME280;45247;47.466;19.004;2022-08-11T12:08:38;100110.28;;;28.04;31.26
59443;BME280;45247;47.466;19.004;2022-08-11T12:11:09;100117.31;;;27.91;31.66
59443;BME280;45247;47.466;19.004;2022-08-11T12:13:57;100127.06;;;28.14;31.65
59443;BME280;45247;47.466;19.004;2022-08-11T12:16:26;100117.00;;;28.08;31.91
59443;BME280;45247;47.466;19.004;2022-08-11T12:19:05;100112.00;;;28.11;31.71
59443;BME280;45247;47.466;19.004;2022-08-11T12:21:35;100105.16;;;28.57;31.12
59443;BME280;45247;47.466;19.004;2022-08-11T12:24:04;100106.56;;;29.14;30.92
59443;BME280;45247;47.466;19.004;2022-08-11T12:26:55;100118.09;;;28.55;30.67
59443;BME280;45247;47.466;19.004;2022-08-11T12:29:45;100096.31;;;28.41;31.38
59443;BME280;45247;47.466;19.004;2022-08-11T12:32:22;100102.38;;;28.37;31.82
59443;BME280;45247;47.466;19.004;2022-08-11T12:34:52;100090.91;;;28.41;31.49
59443;BME280;45247;47.466;19.004;2022-08-11T12:37:26;100098.22;;;28.48;31.25
59443;BME280;45247;47.466;19.004;2022-08-11T12:40:00;100089.09;;;28.62;31.10
59443;BME280;45247;47.466;19.004;2022-08-11T12:43:11;100089.75;;;28.77;30.45
59443;BME280;45247;47.466;19.004;2022-08-11T12:46:08;100089.28;;;28.60;31.11
59443;BME280;45247;47.466;19.004;2022-08-11T12:48:43;100083.84;;;28.54;30.62
59443;BME280;45247;47.466;19.004;2022-08-11T12:51:36;100092.78;;;28.06;31.45
59443;BME280;45247;47.466;19.004;2022-08-11T12:54:45;100087.13;;;28.42;31.01
59443;BME280;45247;47.466;19.004;2022-08-11T12:57:26;100076.19;;;28.84;30.88
59443;BME280;45247;47.466;19.004;2022-08-11T13:00:15;100073.34;;;29.25;31.12
59443;BME280;45247;47.466;19.004;2022-08-11T13:03:02;100066.44;;;29.49;31.16
59443;BME280;45247;47.466;19.004;2022-08-11T13:05:52;100062.69;;;29.24;31.02
59443;BME280;45247;47.466;19.004;2022-08-11T13:08:23;100073.88;;;28.74;31.24
59443;BME280;45247;47.466;19.004;2022-08-11T13:10:53;100064.59;;;28.42;31.38
59443;BME280;45247;47.466;19.004;2022-08-11T13:13:40;100062.34;;;28.11;32.34
59443;BME280;45247;47.466;19.004;2022-08-11T13:16:23;100055.66;;;28.13;32.07
59443;BME280;45247;47.466;19.004;2022-08-11T13:18:53;100064.03;;;28.12;31.85
59443;BME280;45247;47.466;19.004;2022-08-11T13:21:22;100066.03;;;27.97;31.85
59443;BME280;45247;47.466;19.004;2022-08-11T13:23:53;100059.25;;;28.14;32.19
59443;BME280;45247;47.466;19.004;2022-08-11T13:26:33;100062.00;;;27.86;32.52
59443;BME280;45247;47.466;19.004;2022-08-11T13:29:21;100052.94;;;28.07;32.25
59443;BME280;45247;47.466;19.004;2022-08-11T13:31:51;100047.13;;;28.64;32.08
59443;BME280;45247;47.466;19.004;2022-08-11T13:34:20;100047.13;;;28.78;32.11
59443;BME280;45247;47.466;19.004;2022-08-11T13:36:50;100043.22;;;28.87;32.57
59443;BME280;45247;47.466;19.004;2022-08-11T13:39:21;100050.00;;;28.56;33.50
59443;BME280;45247;47.466;19.004;2022-08-11T13:41:53;100051.38;;;28.32;34.60
59443;BME280;45247;47.466;19.004;2022-08-11T13:44:25;100047.56;;;28.20;33.71
59443;BME280;45247;47.466;19.004;2022-08-11T13:46:57;100045.13;;;27.84;34.33
59443;BME280;45247;47.466;19.004;2022-08-11T13:49:28;100057.06;;;27.68;34.83
59443;BME280;45247;47.466;19.004;2022-08-11T13:51:57;100040.31;;;27.58;35.22
59443;BME280;45247;47.466;19.004;2022-08-11T13:54:30;100049.22;;;27.73;35.04
59443;BME280;45247;47.466;19.004;2022-08-11T13:57:02;100038.38;;;27.73;35.22
59443;BME280;45247;47.466;19.004;2022-08-11T13:59:39;100046.50;;;27.73;35.37
59443;BME280;45247;47.466;19.004;2022-08-11T14:02:22;100030.59;;;27.70;36.33
59443;BME280;45247;47.466;19.004;2022-08-11T14:04:57;100029.19;;;27.74;36.11
59443;BME280;45247;47.466;19.004;2022-08-11T14:07:31;100034.13;;;27.36;36.71
59443;BME280;45247;47.466;19.004;2022-08-11T14:10:05;100040.66;;;27.41;36.12
59443;BME280;45247;47.466;19.004;2022-08-11T14:12:36;100032.00;;;27.31;36.00
59443;BME280;45247;47.466;19.004;2022-08-11T14:15:26;100030.97;;;27.32;36.68
59443;BME280;45247;47.466;19.004;2022-08-11T14:17:57;100032.66;;;27.33;36.43
59443;BME280;45247;47.466;19.004;2022-08-11T14:20:28;100034.63;;;27.46;35.71
59443;BME280;45247;47.466;19.004;2022-08-11T14:23:22;100041.03;;;27.38;35.87
59443;BME280;45247;47.466;19.004;2022-08-11T14:25:55;100027.09;;;27.41;35.66
59443;BME280;45247;47.466;19.004;2022-08-11T14:28:41;100033.78;;;27.45;36.01
59443;BME280;45247;47.466;19.004;2022-08-11T14:31:12;100032.44;;;27.35;36.46
59443;BME280;45247;47.466;19.004;2022-08-11T14:33:42;100023.34;;;27.42;36.70
59443;BME280;45247;47.466;19.004;2022-08-11T14:36:29;100031.91;;;27.46;35.52
59443;BME280;45247;47.466;19.004;2022-08-11T14:39:01;100027.41;;;27.32;35.91
59443;BME280;45247;47.466;19.004;2022-08-11T14:41:31;100028.06;;;27.34;35.82
59443;BME280;45247;47.466;19.004;2022-08-11T14:44:39;100027.25;;;27.33;35.61
59443;BME280;45247;47.466;19.004;2022-08-11T14:47:34;100018.97;;;27.41;35.12
59443;BME280;45247;47.466;19.004;2022-08-11T14:50:04;100016.69;;;27.45;35.32